createdAt,value
2017-12-24T00:00:51.047Z,14.73
2017-12-24T00:03:19.390Z,16.80
2017-12-24T00:05:46.950Z,19.30
2017-12-24T00:08:14.511Z,19.03
2017-12-24T00:10:42.076Z,19.13
2017-12-24T00:13:09.669Z,22.40
2017-12-24T00:15:38.050Z,20.30
2017-12-24T00:18:06.838Z,21.17
2017-12-24T00:20:34.449Z,21.70
2017-12-24T00:23:02.031Z,20.63
2017-12-24T00:25:29.613Z,22.07
2017-12-24T00:27:57.959Z,24.13
2017-12-24T00:30:25.534Z,18.93
2017-12-24T00:32:53.102Z,18.77
2017-12-24T00:35:20.682Z,20.80
2017-12-24T00:37:49.047Z,20.83
2017-12-24T00:40:17.413Z,22.80
2017-12-24T00:42:44.978Z,22.83
2017-12-24T00:45:12.557Z,20.60
2017-12-24T00:47:40.919Z,22.73
2017-12-24T00:50:08.542Z,19.93
2017-12-24T00:52:36.138Z,21.50
2017-12-24T00:55:03.747Z,21.87
2017-12-24T00:57:31.318Z,24.10
2017-12-24T00:59:58.854Z,16.80
2017-12-24T01:02:26.512Z,22.30
2017-12-24T01:04:54.102Z,18.63
2017-12-24T01:07:21.676Z,19.70
2017-12-24T01:09:49.241Z,24.50
2017-12-24T01:12:16.866Z,22.03
2017-12-24T01:14:44.435Z,17.90
2017-12-24T01:17:12.018Z,21.37
2017-12-24T01:19:39.565Z,19.30
2017-12-24T01:22:07.142Z,18.90
2017-12-24T01:24:34.723Z,19.60
2017-12-24T01:27:02.343Z,15.50
2017-12-24T01:29:29.969Z,15.63
2017-12-24T01:31:58.485Z,13.37
2017-12-24T01:34:26.090Z,21.40
2017-12-24T01:36:53.657Z,18.27
2017-12-24T01:39:21.240Z,18.70
2017-12-24T01:41:49.557Z,14.57
2017-12-24T01:44:17.149Z,18.87
2017-12-24T01:46:44.719Z,15.50
2017-12-24T01:49:12.384Z,15.20
2017-12-24T01:51:39.952Z,15.40
2017-12-24T01:54:08.302Z,18.50
2017-12-24T01:56:35.874Z,17.80
2017-12-24T01:59:03.436Z,17.37
2017-12-24T02:01:31.074Z,16.23
2017-12-24T02:03:58.621Z,16.87
2017-12-24T02:06:26.202Z,17.80
2017-12-24T02:08:53.765Z,19.60
2017-12-24T02:11:21.367Z,16.37
2017-12-24T02:13:49.770Z,12.73
2017-12-24T02:16:17.345Z,18.80
2017-12-24T02:18:44.914Z,17.80
2017-12-24T02:21:12.470Z,18.37
2017-12-24T02:23:40.046Z,17.20
2017-12-24T02:26:08.446Z,13.77
2017-12-24T02:28:36.026Z,14.13
2017-12-24T02:31:04.385Z,20.20
2017-12-24T02:33:31.993Z,17.90
2017-12-24T02:35:59.560Z,16.80
2017-12-24T02:38:27.190Z,16.80
2017-12-24T02:40:55.505Z,13.87
2017-12-24T02:43:23.106Z,16.03
2017-12-24T02:45:50.777Z,17.50
2017-12-24T02:48:18.358Z,16.83
2017-12-24T02:50:45.900Z,13.50
2017-12-24T02:53:13.502Z,15.63
2017-12-24T02:55:41.838Z,14.17
2017-12-24T02:58:09.524Z,15.23
2017-12-24T03:00:37.860Z,14.80
2017-12-24T03:03:05.554Z,14.07
2017-12-24T03:05:33.945Z,13.67
2017-12-24T03:08:02.274Z,19.13
2017-12-24T03:10:29.851Z,15.50
2017-12-24T03:12:58.030Z,18.00
2017-12-24T03:15:25.610Z,12.90
2017-12-24T03:17:53.156Z,13.73
2017-12-24T03:20:20.757Z,17.83
2017-12-24T03:22:48.361Z,13.30
2017-12-24T03:25:15.985Z,13.03
2017-12-24T03:27:43.566Z,11.37
2017-12-24T03:30:11.163Z,15.67
2017-12-24T03:32:38.736Z,14.30
2017-12-24T03:35:07.070Z,15.67
2017-12-24T03:37:34.651Z,15.20
2017-12-24T03:40:03.157Z,12.00
2017-12-24T03:42:30.730Z,14.20
2017-12-24T03:44:59.055Z,19.80
2017-12-24T03:47:26.641Z,14.90
2017-12-24T03:49:54.205Z,14.83
2017-12-24T03:52:21.790Z,10.73
2017-12-24T03:54:50.122Z,14.57
2017-12-24T03:57:17.727Z,17.47
2017-12-24T03:59:46.043Z,12.20
2017-12-24T04:02:13.599Z,13.47
2017-12-24T04:04:41.164Z,13.93
2017-12-24T04:07:08.714Z,12.00
2017-12-24T04:09:36.303Z,12.33
2017-12-24T04:12:03.863Z,13.10
2017-12-24T04:14:31.433Z,10.33
2017-12-24T04:16:59.017Z,11.43
2017-12-24T04:19:26.603Z,12.50
2017-12-24T04:21:54.927Z,9.87
2017-12-24T04:24:22.534Z,12.87
2017-12-24T04:26:50.057Z,16.70
2017-12-24T04:29:17.625Z,11.10
2017-12-24T04:31:45.190Z,8.87
2017-12-24T04:34:12.895Z,11.50
2017-12-24T04:36:40.466Z,7.93
2017-12-24T04:39:08.030Z,8.73
2017-12-24T04:41:35.628Z,10.63
2017-12-24T04:44:03.187Z,11.20
2017-12-24T04:46:30.769Z,8.90
2017-12-24T04:48:58.465Z,11.13
2017-12-24T04:51:26.026Z,9.70
2017-12-24T04:53:53.616Z,11.90
2017-12-24T04:58:55.136Z,10.73
2017-12-24T05:01:23.532Z,13.00
2017-12-24T05:03:51.085Z,12.17
2017-12-24T05:06:19.426Z,11.00
2017-12-24T05:08:47.001Z,11.90
2017-12-24T05:11:14.669Z,11.67
2017-12-24T05:13:42.229Z,10.73
2017-12-24T05:16:09.854Z,11.00
2017-12-24T05:18:37.400Z,12.00
2017-12-24T05:21:04.990Z,11.53
2017-12-24T05:23:32.556Z,12.90
2017-12-24T05:26:00.139Z,10.20
2017-12-24T05:28:27.717Z,11.13
2017-12-24T05:30:56.070Z,10.33
2017-12-24T05:33:23.638Z,7.70
2017-12-24T05:35:51.289Z,8.50
2017-12-24T05:38:18.838Z,6.27
2017-12-24T05:40:46.387Z,8.70
2017-12-24T05:43:13.942Z,9.73
2017-12-24T05:45:41.542Z,10.30
2017-12-24T05:48:09.170Z,7.73
2017-12-24T05:50:36.793Z,9.97
2017-12-24T05:53:04.441Z,11.67
2017-12-24T05:55:32.742Z,6.67
2017-12-24T05:58:00.481Z,7.70
2017-12-24T06:00:28.805Z,8.23
2017-12-24T06:02:57.154Z,8.50
2017-12-24T06:05:25.465Z,10.03
2017-12-24T06:07:53.082Z,7.00
2017-12-24T06:10:21.434Z,8.07
2017-12-24T06:12:49.061Z,8.80
2017-12-24T06:15:16.614Z,8.70
2017-12-24T06:17:44.211Z,8.97
2017-12-24T06:20:11.779Z,7.67
2017-12-24T06:22:39.362Z,8.00
2017-12-24T06:25:07.709Z,8.13
2017-12-24T06:27:35.284Z,6.80
2017-12-24T06:30:02.879Z,7.40
2017-12-24T06:32:30.434Z,8.00
2017-12-24T06:34:58.761Z,8.10
2017-12-24T06:37:26.434Z,5.73
2017-12-24T06:39:54.051Z,6.93
2017-12-24T06:42:21.547Z,6.10
2017-12-24T06:44:49.122Z,8.77
2017-12-24T06:47:16.754Z,5.70
2017-12-24T06:49:45.087Z,7.93
2017-12-24T06:52:13.472Z,6.37
2017-12-24T06:54:41.821Z,7.93
2017-12-24T06:57:09.384Z,5.60
2017-12-24T06:59:36.957Z,6.53
2017-12-24T07:02:05.285Z,6.23
2017-12-24T07:04:32.864Z,7.13
2017-12-24T07:07:01.263Z,7.20
2017-12-24T07:09:28.886Z,7.83
2017-12-24T07:11:56.478Z,9.13
2017-12-24T07:14:24.043Z,6.00
2017-12-24T07:16:51.613Z,6.37
2017-12-24T07:19:19.183Z,9.17
2017-12-24T07:21:46.742Z,6.80
2017-12-24T07:24:14.293Z,6.80
2017-12-24T07:26:41.858Z,8.23
2017-12-24T07:29:09.409Z,8.00
2017-12-24T07:31:37.007Z,9.67
2017-12-24T07:34:05.361Z,7.47
2017-12-24T07:36:32.939Z,5.73
2017-12-24T07:39:01.302Z,9.53
2017-12-24T07:41:28.870Z,9.57
2017-12-24T07:43:57.229Z,6.60
2017-12-24T07:46:24.804Z,9.13
2017-12-24T07:48:52.363Z,8.00
2017-12-24T07:51:19.980Z,8.60
2017-12-24T07:53:47.546Z,9.90
2017-12-24T07:56:15.132Z,10.90
2017-12-24T07:58:42.720Z,8.40
2017-12-24T08:01:11.064Z,9.63
2017-12-24T08:03:38.667Z,8.40
2017-12-24T08:06:07.011Z,7.30
2017-12-24T08:08:34.576Z,5.90
2017-12-24T08:11:02.157Z,6.30
2017-12-24T08:13:30.500Z,5.10
2017-12-24T08:15:58.101Z,5.27
2017-12-24T08:18:26.587Z,3.67
2017-12-24T08:20:54.982Z,5.87
2017-12-24T08:23:22.544Z,4.50
2017-12-24T08:25:50.149Z,5.30
2017-12-24T08:28:17.706Z,3.03
2017-12-24T08:30:45.294Z,4.57
2017-12-24T08:33:12.862Z,3.10
2017-12-24T08:35:41.194Z,3.40
2017-12-24T08:38:08.819Z,2.13
2017-12-24T08:40:36.410Z,3.93
2017-12-24T08:43:03.980Z,6.50
2017-12-24T08:45:31.577Z,4.20
2017-12-24T08:47:59.210Z,3.30
2017-12-24T08:50:26.997Z,2.67
2017-12-24T08:52:54.711Z,2.67
2017-12-24T08:55:22.274Z,3.17
2017-12-24T08:57:49.839Z,2.57
2017-12-24T09:00:17.424Z,2.60
2017-12-24T09:02:45.003Z,3.00
2017-12-24T09:05:12.615Z,2.70
2017-12-24T09:07:40.392Z,2.73
2017-12-24T09:10:07.974Z,3.10
2017-12-24T09:12:35.513Z,1.87
2017-12-24T09:15:03.178Z,1.43
2017-12-24T09:17:30.744Z,2.00
2017-12-24T09:19:58.353Z,3.30
2017-12-24T09:22:26.688Z,4.13
2017-12-24T09:24:54.259Z,2.13
2017-12-24T09:27:21.837Z,2.23
2017-12-24T09:29:49.409Z,2.10
2017-12-24T09:32:17.018Z,2.50
2017-12-24T09:34:44.580Z,3.83
2017-12-24T09:37:12.956Z,3.40
2017-12-24T09:39:40.528Z,2.83
2017-12-24T09:42:08.182Z,3.40
2017-12-24T09:44:35.734Z,2.00
2017-12-24T09:47:03.342Z,1.70
2017-12-24T09:49:30.950Z,4.47
2017-12-24T09:51:59.276Z,2.10
2017-12-24T09:54:26.865Z,1.80
2017-12-24T09:56:54.420Z,3.13
2017-12-24T09:59:22.005Z,2.10
2017-12-24T10:01:49.562Z,3.63
2017-12-24T10:04:17.205Z,1.87
2017-12-24T10:06:44.788Z,2.00
2017-12-24T10:09:13.141Z,2.37
2017-12-24T10:11:40.714Z,3.07
2017-12-24T10:14:08.333Z,3.20
2017-12-24T10:16:35.889Z,3.83
2017-12-24T10:19:03.463Z,3.50
2017-12-24T10:21:31.399Z,2.30
2017-12-24T10:23:58.965Z,2.20
2017-12-24T10:26:26.566Z,1.83
2017-12-24T10:28:54.155Z,3.77
2017-12-24T10:31:22.498Z,3.43
2017-12-24T10:33:50.042Z,2.40
2017-12-24T10:36:17.645Z,1.80
2017-12-24T10:38:45.265Z,3.30
2017-12-24T10:41:12.840Z,2.10
2017-12-24T10:43:40.397Z,2.40
2017-12-24T10:46:07.981Z,2.67
2017-12-24T10:48:35.555Z,2.37
2017-12-24T10:51:03.889Z,3.63
2017-12-24T10:53:31.453Z,2.70
2017-12-24T10:55:59.065Z,2.80
2017-12-24T10:58:27.476Z,4.80
2017-12-24T11:00:55.111Z,3.80
2017-12-24T11:03:23.598Z,3.17
2017-12-24T11:05:51.182Z,2.80
2017-12-24T11:08:18.816Z,14.00
2017-12-24T11:10:47.139Z,2.97
2017-12-24T11:13:14.719Z,4.97
2017-12-24T11:15:42.353Z,3.43
2017-12-24T11:18:09.975Z,3.70
2017-12-24T11:20:38.313Z,4.67
2017-12-24T11:23:06.292Z,3.93
2017-12-24T11:25:34.613Z,3.30
2017-12-24T11:28:02.234Z,2.30
2017-12-24T11:30:29.794Z,4.90
2017-12-24T11:32:57.404Z,4.27
2017-12-24T11:35:25.263Z,3.30
2017-12-24T11:37:53.585Z,3.90
2017-12-24T11:40:21.214Z,4.40
2017-12-24T11:42:48.811Z,4.67
2017-12-24T11:45:16.413Z,6.03
2017-12-24T11:47:44.801Z,5.63
2017-12-24T11:50:12.339Z,5.27
2017-12-24T11:52:40.145Z,5.70
2017-12-24T11:55:08.478Z,5.67
2017-12-24T11:57:36.071Z,8.43
2017-12-24T12:00:04.423Z,4.77
2017-12-24T12:02:32.006Z,6.50
2017-12-24T12:05:00.331Z,6.80
2017-12-24T12:07:27.965Z,6.50
2017-12-24T12:09:55.546Z,5.23
2017-12-24T12:12:23.111Z,4.87
2017-12-24T12:14:50.671Z,6.37
2017-12-24T12:17:18.265Z,6.63
2017-12-24T12:19:45.836Z,5.80
2017-12-24T12:22:14.206Z,7.50
2017-12-24T12:24:41.778Z,4.40
2017-12-24T12:27:10.178Z,5.90
2017-12-24T12:29:37.798Z,5.00
2017-12-24T12:32:05.384Z,5.70
2017-12-24T12:34:33.878Z,5.03
2017-12-24T12:37:02.204Z,4.80
2017-12-24T12:39:29.795Z,3.40
2017-12-24T12:41:57.354Z,4.57
2017-12-24T12:44:24.950Z,5.03
2017-12-24T12:46:52.517Z,6.10
2017-12-24T12:49:20.083Z,4.40
2017-12-24T12:51:47.699Z,4.70
2017-12-24T12:54:15.342Z,4.17
2017-12-24T12:56:42.996Z,6.10
2017-12-24T12:59:10.582Z,6.13
2017-12-24T13:01:38.170Z,8.63
2017-12-24T13:04:06.521Z,3.03
2017-12-24T13:06:34.106Z,3.87
2017-12-24T13:09:02.533Z,3.63
2017-12-24T13:11:30.358Z,3.60
2017-12-24T13:13:57.924Z,4.93
2017-12-24T13:16:25.491Z,4.27
2017-12-24T13:18:53.061Z,2.93
2017-12-24T13:21:20.633Z,3.10
2017-12-24T13:23:48.241Z,4.47
2017-12-24T13:26:15.808Z,6.10
2017-12-24T13:28:44.161Z,2.90
2017-12-24T13:31:11.737Z,4.47
2017-12-24T13:33:39.336Z,3.13
2017-12-24T13:36:06.916Z,7.73
2017-12-24T13:38:34.489Z,4.30
2017-12-24T13:41:02.064Z,4.33
2017-12-24T13:43:29.651Z,6.27
2017-12-24T13:45:58.000Z,5.80
2017-12-24T13:48:25.566Z,6.20
2017-12-24T13:50:53.158Z,5.80
2017-12-24T13:53:20.722Z,5.80
2017-12-24T13:55:49.091Z,5.10
2017-12-24T13:58:17.484Z,5.87
2017-12-24T14:00:45.805Z,7.80
2017-12-24T14:03:13.393Z,7.70
2017-12-24T14:05:40.980Z,6.70
2017-12-24T14:08:09.479Z,7.60
2017-12-24T14:10:37.062Z,9.30
2017-12-24T14:13:04.626Z,8.37
2017-12-24T14:15:33.010Z,6.23
2017-12-24T14:18:00.653Z,7.83
2017-12-24T14:20:28.279Z,5.47
2017-12-24T14:22:55.843Z,8.20
2017-12-24T14:25:24.191Z,7.90
2017-12-24T14:27:51.771Z,6.00
2017-12-24T14:30:19.363Z,5.03
2017-12-24T14:32:47.690Z,5.40
2017-12-24T14:35:15.314Z,5.80
2017-12-24T14:37:42.904Z,6.63
2017-12-24T14:40:10.482Z,6.10
2017-12-24T14:42:38.069Z,6.17
2017-12-24T14:45:06.444Z,6.53
2017-12-24T14:47:34.002Z,5.10
2017-12-24T14:50:02.347Z,4.00
2017-12-24T14:52:29.932Z,6.00
2017-12-24T14:54:57.493Z,6.40
2017-12-24T14:57:25.067Z,6.83
2017-12-24T14:59:53.447Z,8.13
2017-12-24T15:02:21.862Z,7.20
2017-12-24T15:04:49.441Z,7.80
2017-12-24T15:07:17.041Z,7.63
2017-12-24T15:09:44.606Z,5.37
2017-12-24T15:12:12.150Z,5.83
2017-12-24T15:14:39.744Z,6.53
2017-12-24T15:17:08.076Z,7.20
2017-12-24T15:19:35.684Z,6.00
2017-12-24T15:22:03.993Z,5.43
2017-12-24T15:24:34.935Z,8.17
2017-12-24T15:27:02.486Z,7.37
2017-12-24T15:29:30.074Z,5.53
2017-12-24T15:31:57.662Z,7.53
2017-12-24T15:34:25.303Z,6.60
2017-12-24T15:36:52.863Z,6.30
2017-12-24T15:39:20.409Z,5.93
2017-12-24T15:41:47.982Z,5.30
2017-12-24T15:44:15.742Z,4.77
2017-12-24T15:46:43.350Z,6.30
2017-12-24T15:49:11.668Z,5.27
2017-12-24T15:51:39.238Z,7.50
2017-12-24T15:54:06.822Z,8.23
2017-12-24T15:56:34.421Z,7.23
2017-12-24T15:59:02.000Z,6.53
2017-12-24T16:01:29.619Z,6.23
2017-12-24T16:03:57.148Z,7.37
2017-12-24T16:06:24.705Z,7.70
2017-12-24T16:08:52.286Z,6.33
2017-12-24T16:11:19.852Z,9.25
2017-12-24T16:13:47.574Z,8.00
2017-12-24T16:16:15.141Z,6.67
2017-12-24T16:18:42.734Z,10.13
2017-12-24T16:21:10.310Z,5.50
2017-12-24T16:23:37.895Z,6.90
2017-12-24T16:26:05.475Z,7.70
2017-12-24T16:28:33.068Z,7.30
2017-12-24T16:31:00.667Z,9.27
2017-12-24T16:33:28.995Z,8.57
2017-12-24T16:35:56.623Z,9.27
2017-12-24T16:38:24.214Z,9.37
2017-12-24T16:40:51.774Z,10.90
2017-12-24T16:43:19.342Z,8.83
2017-12-24T16:45:46.941Z,11.13
2017-12-24T16:48:15.274Z,12.40
2017-12-24T16:50:42.875Z,7.37
2017-12-24T16:53:10.428Z,8.80
2017-12-24T16:55:38.015Z,9.93
2017-12-24T16:58:06.358Z,11.03
2017-12-24T17:00:33.963Z,11.50
2017-12-24T17:03:02.279Z,9.33
2017-12-24T17:05:30.616Z,11.13
2017-12-24T17:07:58.953Z,12.33
2017-12-24T17:10:26.508Z,13.70
2017-12-24T17:12:54.114Z,10.90
2017-12-24T17:15:22.481Z,14.13
2017-12-24T17:17:50.942Z,10.73
2017-12-24T17:20:18.568Z,11.07
2017-12-24T17:22:46.156Z,12.83
2017-12-24T17:25:13.722Z,9.47
2017-12-24T17:27:41.282Z,12.00
2017-12-24T17:30:08.860Z,15.80
2017-12-24T17:32:36.442Z,10.03
2017-12-24T17:35:04.797Z,13.03
2017-12-24T17:37:33.130Z,11.60
2017-12-24T17:40:00.742Z,10.40
2017-12-24T17:42:28.335Z,12.17
2017-12-24T17:44:56.666Z,12.40
2017-12-24T17:47:24.220Z,10.07
2017-12-24T17:49:51.853Z,12.10
2017-12-24T17:52:19.424Z,12.83
2017-12-24T17:54:47.003Z,11.33
2017-12-24T17:57:14.554Z,13.37
2017-12-24T17:59:42.160Z,8.90
2017-12-24T18:02:10.482Z,13.30
2017-12-24T18:04:38.058Z,30.73
2017-12-24T18:07:05.651Z,12.37
2017-12-24T18:09:33.260Z,13.10
2017-12-24T18:12:00.862Z,13.30
2017-12-24T18:14:28.473Z,13.47
2017-12-24T18:16:56.103Z,14.63
2017-12-24T18:19:23.658Z,14.00
2017-12-24T18:21:51.249Z,16.37
2017-12-24T18:24:18.833Z,14.80
2017-12-24T18:26:46.427Z,15.83
2017-12-24T18:29:14.007Z,13.70
2017-12-24T18:31:42.345Z,15.80
2017-12-24T18:34:09.913Z,13.10
2017-12-24T18:36:37.501Z,10.53
2017-12-24T18:39:05.073Z,15.50
2017-12-24T18:41:33.437Z,11.90
2017-12-24T18:44:01.014Z,13.83
2017-12-24T18:46:29.434Z,12.37
2017-12-24T18:48:57.019Z,14.27
2017-12-24T18:51:25.041Z,13.17
2017-12-24T18:53:53.537Z,14.23
2017-12-24T18:56:21.107Z,14.63
2017-12-24T18:58:48.710Z,11.07
2017-12-24T19:01:16.270Z,10.43
2017-12-24T19:03:43.866Z,14.20
2017-12-24T19:06:11.464Z,12.90
2017-12-24T19:08:39.104Z,12.80
2017-12-24T19:11:06.666Z,13.03
2017-12-24T19:13:34.247Z,15.30
2017-12-24T19:16:01.809Z,17.53
2017-12-24T19:18:29.397Z,16.13
2017-12-24T19:20:56.970Z,12.00
2017-12-24T19:23:24.533Z,14.50
2017-12-24T19:25:52.117Z,12.80
2017-12-24T19:28:19.694Z,14.50
2017-12-24T19:30:47.291Z,13.63
2017-12-24T19:33:14.861Z,12.20
2017-12-24T19:35:42.438Z,17.10
2017-12-24T19:38:10.026Z,15.00
2017-12-24T19:40:37.591Z,16.10
2017-12-24T19:43:05.178Z,13.10
2017-12-24T19:45:32.740Z,8.03
2017-12-24T19:48:00.304Z,13.93
2017-12-24T19:50:27.927Z,12.70
2017-12-24T19:52:55.539Z,9.50
2017-12-24T19:55:23.145Z,12.93
2017-12-24T19:57:51.470Z,13.37
2017-12-24T20:00:19.019Z,14.60
2017-12-24T20:02:46.615Z,11.40
2017-12-24T20:08:35.592Z,11.17
2017-12-24T20:11:03.543Z,14.43
2017-12-24T20:13:31.121Z,12.00
2017-12-24T20:15:58.695Z,11.90
2017-12-24T20:18:26.314Z,10.87
2017-12-24T20:20:53.934Z,9.47
2017-12-24T20:23:23.050Z,10.17
2017-12-24T20:25:50.637Z,10.80
2017-12-24T20:28:18.263Z,9.20
2017-12-24T20:30:46.658Z,12.67
2017-12-24T20:33:14.232Z,10.10
2017-12-24T20:35:41.810Z,8.57
2017-12-24T20:38:09.380Z,9.90
2017-12-24T20:40:37.018Z,8.47
2017-12-24T20:43:04.587Z,12.37
2017-12-24T20:45:32.208Z,9.93
2017-12-24T20:48:00.529Z,6.97
2017-12-24T20:50:28.124Z,11.23
2017-12-24T20:52:55.724Z,7.30
2017-12-24T20:55:23.295Z,13.37
2017-12-24T20:57:50.978Z,8.67
2017-12-24T21:00:18.550Z,4.50
2017-12-24T21:02:46.123Z,10.03
2017-12-24T21:05:13.702Z,8.80
2017-12-24T21:07:42.072Z,12.10
2017-12-24T21:10:09.688Z,10.03
2017-12-24T21:12:37.257Z,7.40
2017-12-24T21:15:04.959Z,9.03
2017-12-24T21:17:32.517Z,11.50
2017-12-24T21:20:00.135Z,10.33
2017-12-24T21:22:27.714Z,12.70
2017-12-24T21:24:55.292Z,13.30
2017-12-24T21:27:23.132Z,10.90
2017-12-24T21:29:50.754Z,7.90
2017-12-24T21:32:18.365Z,8.67
2017-12-24T21:34:45.953Z,8.33
2017-12-24T21:37:13.567Z,8.67
2017-12-24T21:39:41.165Z,8.60
2017-12-24T21:42:08.735Z,7.10
2017-12-24T21:44:36.314Z,7.70
2017-12-24T21:47:03.897Z,8.20
2017-12-24T21:49:31.446Z,7.43
2017-12-24T21:51:59.819Z,7.20
2017-12-24T21:54:28.145Z,6.57
2017-12-24T21:56:55.729Z,6.23
2017-12-24T21:59:23.302Z,5.40
2017-12-24T22:01:50.864Z,6.10
2017-12-24T22:04:19.242Z,7.73
2017-12-24T22:06:47.577Z,5.10
2017-12-24T22:09:15.166Z,5.97
2017-12-24T22:11:42.738Z,5.63
2017-12-24T22:14:10.285Z,6.27
2017-12-24T22:16:37.911Z,3.93
2017-12-24T22:19:05.502Z,5.17
2017-12-24T22:21:33.075Z,4.97
2017-12-24T22:24:00.650Z,4.63
2017-12-24T22:26:28.947Z,5.27
2017-12-24T22:28:56.530Z,8.33
2017-12-24T22:31:24.100Z,3.37
2017-12-24T22:33:51.682Z,3.53
2017-12-24T22:36:19.249Z,4.07
2017-12-24T22:38:46.840Z,3.60
2017-12-24T22:41:14.432Z,9.03
2017-12-24T22:43:42.588Z,4.53
2017-12-24T22:46:10.924Z,5.70
2017-12-24T22:48:39.389Z,4.77
2017-12-24T22:51:06.962Z,3.60
2017-12-24T22:53:34.525Z,4.53
2017-12-24T22:56:02.107Z,4.87
2017-12-24T22:58:29.673Z,5.60
2017-12-24T23:00:57.205Z,3.83
2017-12-24T23:03:24.812Z,4.37
2017-12-24T23:05:53.127Z,5.80
2017-12-24T23:08:20.684Z,6.00
2017-12-24T23:10:48.264Z,4.40
2017-12-24T23:13:15.854Z,7.23
2017-12-24T23:15:43.466Z,5.83
2017-12-24T23:18:11.057Z,5.70
2017-12-24T23:20:38.653Z,8.20
2017-12-24T23:23:06.984Z,7.67
2017-12-24T23:25:34.577Z,7.33
2017-12-24T23:28:02.122Z,7.67
2017-12-24T23:30:29.766Z,6.37
2017-12-24T23:32:57.333Z,7.63
2017-12-24T23:35:24.925Z,8.90
2017-12-24T23:37:53.251Z,6.83
2017-12-24T23:40:20.895Z,4.43
2017-12-24T23:42:48.479Z,4.70
2017-12-24T23:45:16.054Z,4.77
2017-12-24T23:47:43.617Z,5.73
2017-12-24T23:50:11.165Z,3.50
2017-12-24T23:52:38.817Z,5.40
2017-12-24T23:55:06.372Z,5.57
2017-12-24T23:57:33.946Z,5.67
